createdAt,value
2022-10-04T00:02:00.758Z,11.05
2022-10-04T00:04:15.187Z,10.00
2022-10-04T00:06:21.125Z,11.60
2022-10-04T00:08:28.832Z,12.43
2022-10-04T00:10:33.415Z,9.17
2022-10-04T00:12:45.952Z,13.55
2022-10-04T00:14:48.798Z,8.30
2022-10-04T00:16:51.721Z,7.85
2022-10-04T00:19:26.769Z,11.68
2022-10-04T00:21:54.820Z,13.07
2022-10-04T00:24:11.168Z,6.90
2022-10-04T00:26:35.666Z,6.50
2022-10-04T00:28:37.547Z,9.07
2022-10-04T00:30:39.415Z,8.77
2022-10-04T00:32:41.300Z,8.18
2022-10-04T00:34:49.038Z,7.57
2022-10-04T00:36:56.042Z,9.70
2022-10-04T00:39:06.839Z,6.45
2022-10-04T00:41:11.530Z,7.47
2022-10-04T00:43:25.803Z,6.80
2022-10-04T00:45:48.868Z,11.48
2022-10-04T00:48:05.910Z,10.82
2022-10-04T00:50:25.847Z,6.30
2022-10-04T00:52:32.328Z,9.65
2022-10-04T00:54:50.387Z,8.35
2022-10-04T00:57:10.343Z,9.07
2022-10-04T00:59:38.338Z,7.75
2022-10-04T01:01:40.629Z,6.75
2022-10-04T01:03:44.494Z,9.38
2022-10-04T01:05:51.902Z,8.52
2022-10-04T01:08:02.782Z,9.77
2022-10-04T01:10:31.371Z,7.68
2022-10-04T01:12:56.574Z,7.45
2022-10-04T01:15:14.286Z,9.75
2022-10-04T01:17:16.161Z,7.07
2022-10-04T01:19:26.888Z,6.03
2022-10-04T01:21:31.932Z,6.55
2022-10-04T01:23:36.122Z,8.32
2022-10-04T01:25:44.149Z,6.85
2022-10-04T01:27:46.062Z,8.13
2022-10-04T01:29:48.107Z,9.40
2022-10-04T01:31:55.008Z,10.70
2022-10-04T01:33:57.860Z,8.50
2022-10-04T01:35:59.855Z,5.50
2022-10-04T01:38:07.281Z,6.60
2022-10-04T01:40:10.474Z,9.45
2022-10-04T01:42:42.341Z,8.10
2022-10-04T01:45:05.348Z,5.78
2022-10-04T01:47:14.756Z,6.72
2022-10-04T01:49:20.560Z,7.68
2022-10-04T01:51:31.277Z,9.13
2022-10-04T01:53:43.636Z,6.72
2022-10-04T01:55:50.939Z,5.53
2022-10-04T01:58:03.161Z,5.38
2022-10-04T02:00:12.529Z,11.32
2022-10-04T02:02:33.331Z,8.73
2022-10-04T02:04:39.632Z,6.80
2022-10-04T02:06:44.181Z,8.20
2022-10-04T02:08:50.761Z,11.05
2022-10-04T02:10:54.993Z,8.90
2022-10-04T02:12:57.595Z,7.70
2022-10-04T02:15:02.601Z,8.13
2022-10-04T02:17:10.593Z,6.35
2022-10-04T02:19:14.361Z,9.75
2022-10-04T02:21:17.686Z,7.57
2022-10-04T02:23:21.483Z,5.88
2022-10-04T02:25:23.525Z,5.90
2022-10-04T02:27:31.267Z,7.80
2022-10-04T02:29:33.706Z,6.38
2022-10-04T02:31:57.132Z,7.43
2022-10-04T02:34:00.391Z,9.05
2022-10-04T02:36:02.608Z,9.38
2022-10-04T02:38:13.420Z,6.15
2022-10-04T02:40:21.633Z,5.55
2022-10-04T02:42:40.966Z,6.88
2022-10-04T02:44:56.706Z,6.95
2022-10-04T02:47:15.226Z,6.15
2022-10-04T02:51:26.821Z,6.40
2022-10-04T02:53:50.428Z,8.20
2022-10-04T02:55:53.752Z,5.40
2022-10-04T02:57:57.170Z,5.63
2022-10-04T03:00:24.614Z,6.72
2022-10-04T03:02:30.372Z,6.00
2022-10-04T03:04:38.067Z,6.75
2022-10-04T03:06:40.517Z,6.93
2022-10-04T03:08:49.189Z,5.80
2022-10-04T03:12:53.443Z,6.05
2022-10-04T03:14:55.691Z,10.90
2022-10-04T03:17:00.882Z,5.47
2022-10-04T03:19:03.626Z,5.25
2022-10-04T03:21:09.438Z,6.43
2022-10-04T03:23:13.586Z,7.07
2022-10-04T03:25:22.209Z,7.32
2022-10-04T03:29:32.501Z,5.53
2022-10-04T03:31:37.466Z,5.18
2022-10-04T03:33:40.283Z,6.10
2022-10-04T03:35:42.235Z,4.47
2022-10-04T03:37:44.327Z,6.35
2022-10-04T03:39:49.349Z,7.13
2022-10-04T03:41:51.810Z,4.93
2022-10-04T03:43:56.080Z,5.80
2022-10-04T03:45:59.636Z,6.90
2022-10-04T03:48:06.596Z,5.43
2022-10-04T03:50:24.685Z,6.03
2022-10-04T03:52:31.682Z,6.40
2022-10-04T03:54:34.373Z,5.95
2022-10-04T03:56:37.207Z,5.82
2022-10-04T03:58:39.688Z,5.95
2022-10-04T04:01:04.624Z,6.10
2022-10-04T04:03:09.344Z,5.47
2022-10-04T04:05:22.631Z,4.22
2022-10-04T04:07:33.705Z,5.90
2022-10-04T04:09:43.965Z,5.72
2022-10-04T04:11:49.468Z,7.07
2022-10-04T04:14:12.382Z,5.22
2022-10-04T04:16:14.902Z,6.68
2022-10-04T04:18:20.820Z,4.57
2022-10-04T04:20:28.568Z,5.10
2022-10-04T04:22:31.960Z,5.13
2022-10-04T04:24:33.935Z,7.07
2022-10-04T04:26:42.171Z,4.68
2022-10-04T04:28:51.652Z,4.60
2022-10-04T04:31:06.540Z,4.63
2022-10-04T04:33:21.004Z,6.90
2022-10-04T04:35:34.042Z,5.85
2022-10-04T04:37:37.373Z,4.68
2022-10-04T04:39:44.790Z,5.95
2022-10-04T04:41:50.382Z,5.57
2022-10-04T04:43:53.170Z,7.65
2022-10-04T04:46:22.194Z,5.00
2022-10-04T04:48:23.116Z,3.70
2022-10-04T04:50:37.000Z,5.78
2022-10-04T04:52:41.296Z,6.40
2022-10-04T04:54:47.020Z,4.00
2022-10-04T04:56:54.077Z,5.15
2022-10-04T04:58:59.651Z,7.90
2022-10-04T05:01:16.189Z,5.85
2022-10-04T05:03:19.970Z,6.60
2022-10-04T05:05:24.160Z,6.10
2022-10-04T05:07:26.104Z,5.63
2022-10-04T05:09:38.455Z,6.43
2022-10-04T05:11:41.596Z,5.18
2022-10-04T05:13:47.345Z,8.50
2022-10-04T05:15:54.170Z,10.77
2022-10-04T05:17:56.070Z,7.35
2022-10-04T05:20:00.542Z,8.90
2022-10-04T05:22:11.432Z,10.75
2022-10-04T05:24:32.639Z,9.70
2022-10-04T05:26:34.635Z,11.35
2022-10-04T05:28:36.524Z,13.40
2022-10-04T05:31:02.952Z,11.63
2022-10-04T05:33:10.787Z,11.82
2022-10-04T05:35:18.285Z,8.13
2022-10-04T05:37:29.985Z,6.70
2022-10-04T05:39:37.331Z,9.25
2022-10-04T05:41:51.008Z,7.03
2022-10-04T05:43:52.978Z,10.45
2022-10-04T05:46:24.539Z,8.90
2022-10-04T05:48:26.475Z,10.07
2022-10-04T05:50:41.521Z,8.93
2022-10-04T05:52:43.619Z,8.65
2022-10-04T05:54:45.508Z,12.48
2022-10-04T05:57:04.172Z,12.25
2022-10-04T05:59:27.686Z,10.65
2022-10-04T06:01:34.359Z,9.82
2022-10-04T06:04:13.835Z,11.43
2022-10-04T06:06:49.759Z,13.02
2022-10-04T06:09:11.795Z,7.25
2022-10-04T06:11:26.447Z,7.40
2022-10-04T06:13:40.204Z,10.85
2022-10-04T06:16:09.396Z,9.35
2022-10-04T06:18:13.904Z,8.32
2022-10-04T06:20:24.794Z,5.97
2022-10-04T06:22:26.912Z,5.50
2022-10-04T06:24:33.135Z,10.18
2022-10-04T06:26:43.398Z,7.55
2022-10-04T06:28:58.415Z,7.32
2022-10-04T06:31:12.266Z,7.95
2022-10-04T06:33:28.954Z,8.70
2022-10-04T06:35:50.099Z,6.80
2022-10-04T06:38:10.914Z,11.25
2022-10-04T06:40:45.490Z,7.63
2022-10-04T06:43:06.213Z,8.90
2022-10-04T06:45:30.172Z,6.68
2022-10-04T06:47:50.920Z,5.30
2022-10-04T06:50:14.325Z,6.18
2022-10-04T06:52:48.767Z,7.20
2022-10-04T06:54:59.918Z,5.97
2022-10-04T06:57:23.226Z,8.52
2022-10-04T06:59:45.013Z,5.90
2022-10-04T07:01:58.799Z,10.05
2022-10-04T07:04:16.071Z,7.57
2022-10-04T07:06:31.401Z,5.68
2022-10-04T07:08:42.287Z,8.20
2022-10-04T07:10:50.412Z,5.10
2022-10-04T07:13:04.270Z,5.82
2022-10-04T07:15:23.637Z,6.20
2022-10-04T07:17:32.713Z,4.57
2022-10-04T07:19:46.656Z,7.22
2022-10-04T07:22:03.414Z,5.78
2022-10-04T07:24:12.065Z,7.90
2022-10-04T07:28:51.538Z,5.95
2022-10-04T07:31:11.685Z,4.80
2022-10-04T07:33:19.098Z,5.05
2022-10-04T07:35:39.661Z,6.32
2022-10-04T07:38:13.017Z,6.07
2022-10-04T07:40:30.654Z,5.85
2022-10-04T07:42:53.117Z,5.40
2022-10-04T07:45:12.792Z,6.03
2022-10-04T07:47:27.964Z,6.03
2022-10-04T07:49:39.407Z,7.57
2022-10-04T07:52:04.356Z,7.72
2022-10-04T07:54:18.351Z,4.40
2022-10-04T07:56:55.215Z,4.80
2022-10-04T07:59:24.055Z,6.25
2022-10-04T08:01:48.671Z,5.82
2022-10-04T08:03:59.768Z,6.97
2022-10-04T08:06:30.662Z,4.88
2022-10-04T08:09:00.080Z,4.97
2022-10-04T08:11:12.794Z,6.82
2022-10-04T08:13:53.642Z,5.00
2022-10-04T08:16:01.616Z,6.40
2022-10-04T08:18:23.682Z,4.95
2022-10-04T08:21:08.912Z,7.40
2022-10-04T08:23:26.961Z,5.78
2022-10-04T08:25:47.040Z,5.03
2022-10-04T08:28:21.032Z,4.78
2022-10-04T08:30:22.969Z,6.18
2022-10-04T08:32:43.211Z,6.55
2022-10-04T08:35:28.763Z,5.38
2022-10-04T08:37:59.418Z,6.43
2022-10-04T08:40:13.628Z,6.25
2022-10-04T08:42:53.204Z,6.07
2022-10-04T08:45:34.767Z,8.25
2022-10-04T08:48:10.094Z,6.50
2022-10-04T08:50:26.699Z,8.02
2022-10-04T08:52:48.190Z,8.52
2022-10-04T08:55:11.945Z,10.70
2022-10-04T08:57:38.199Z,13.30
2022-10-04T09:00:17.183Z,12.27
2022-10-04T09:02:47.950Z,8.05
2022-10-04T09:05:08.861Z,10.38
2022-10-04T09:07:55.342Z,10.38
2022-10-04T09:09:57.192Z,9.80
2022-10-04T09:12:15.735Z,10.52
2022-10-04T09:14:17.646Z,12.50
2022-10-04T09:16:31.881Z,11.55
2022-10-04T09:18:45.783Z,9.30
2022-10-04T09:21:14.310Z,10.55
2022-10-04T09:23:50.105Z,12.88
2022-10-04T09:26:06.516Z,14.90
2022-10-04T09:28:29.741Z,11.57
2022-10-04T09:31:08.102Z,14.50
2022-10-04T09:33:25.491Z,12.27
2022-10-04T09:35:45.629Z,13.13
2022-10-04T09:37:54.209Z,11.38
2022-10-04T09:42:41.330Z,10.75
2022-10-04T09:44:46.162Z,12.70
2022-10-04T09:47:19.408Z,13.27
2022-10-04T09:49:36.783Z,10.60
2022-10-04T09:51:57.298Z,12.82
2022-10-04T09:54:10.680Z,9.85
2022-10-04T09:56:37.319Z,14.00
2022-10-04T09:58:51.289Z,13.18
2022-10-04T10:01:18.519Z,15.82
2022-10-04T10:03:41.535Z,13.75
2022-10-04T10:06:13.617Z,14.65
2022-10-04T10:08:35.134Z,14.07
2022-10-04T10:10:58.514Z,14.40
2022-10-04T10:13:37.881Z,16.63
2022-10-04T10:16:04.673Z,19.40
2022-10-04T10:18:44.455Z,17.13
2022-10-04T10:21:24.453Z,15.82
2022-10-04T10:23:32.080Z,15.38
2022-10-04T10:25:47.868Z,19.83
2022-10-04T10:27:54.133Z,14.25
2022-10-04T10:30:28.244Z,19.08
2022-10-04T10:32:51.295Z,19.15
2022-10-04T10:35:11.815Z,17.95
2022-10-04T10:37:51.023Z,16.45
2022-10-04T10:40:11.563Z,15.98
2022-10-04T10:42:45.287Z,17.20
2022-10-04T10:44:54.186Z,16.65
2022-10-04T10:46:59.064Z,18.73
2022-10-04T10:49:20.087Z,21.80
2022-10-04T10:51:55.876Z,18.33
2022-10-04T10:54:40.389Z,16.73
2022-10-04T10:57:18.345Z,16.95
2022-10-04T10:59:39.518Z,15.10
2022-10-04T11:02:01.149Z,16.52
2022-10-04T11:04:14.883Z,15.48
2022-10-04T11:06:21.323Z,15.65
2022-10-04T11:08:42.010Z,15.52
2022-10-04T11:11:03.394Z,13.45
2022-10-04T11:13:18.775Z,16.23
2022-10-04T11:15:42.414Z,16.48
2022-10-04T11:18:15.879Z,16.77
2022-10-04T11:20:38.810Z,15.50
2022-10-04T11:23:18.472Z,15.05
2022-10-04T11:25:42.245Z,13.57
2022-10-04T11:28:04.452Z,11.00
2022-10-04T11:30:25.099Z,12.73
2022-10-04T11:32:45.562Z,12.32
2022-10-04T11:35:12.659Z,11.20
2022-10-04T11:37:36.004Z,10.73
2022-10-04T11:40:02.523Z,11.80
2022-10-04T11:42:04.395Z,10.48
2022-10-04T11:44:32.309Z,10.30
2022-10-04T11:49:08.326Z,8.05
2022-10-04T11:51:19.559Z,8.48
2022-10-04T11:53:33.825Z,7.75
2022-10-04T11:56:04.298Z,7.20
2022-10-04T11:58:35.783Z,7.38
2022-10-04T12:00:49.640Z,7.50
2022-10-04T12:03:30.410Z,7.07
2022-10-04T12:05:43.320Z,8.38
2022-10-04T12:07:57.261Z,7.57
2022-10-04T12:10:17.717Z,6.45
2022-10-04T12:12:47.330Z,7.53
2022-10-04T12:15:15.421Z,6.53
2022-10-04T12:17:55.743Z,7.40
2022-10-04T12:20:16.123Z,7.35
2022-10-04T12:22:23.557Z,6.65
2022-10-04T12:24:37.113Z,7.07
2022-10-04T12:26:48.360Z,6.68
2022-10-04T12:29:15.419Z,7.40
2022-10-04T12:31:28.787Z,7.15
2022-10-04T12:33:34.825Z,6.50
2022-10-04T12:35:58.781Z,6.68
2022-10-04T12:38:38.475Z,6.88
2022-10-04T12:40:48.832Z,7.32
2022-10-04T12:43:13.136Z,6.82
2022-10-04T12:45:40.409Z,5.85
2022-10-04T12:48:05.881Z,7.13
2022-10-04T12:50:19.706Z,6.53
2022-10-04T12:52:27.940Z,5.60
2022-10-04T12:54:36.514Z,6.30
2022-10-04T12:56:44.407Z,6.50
2022-10-04T13:01:19.858Z,6.05
2022-10-04T13:03:30.385Z,6.13
2022-10-04T13:05:47.715Z,6.28
2022-10-04T13:07:58.599Z,5.47
2022-10-04T13:10:26.093Z,5.93
2022-10-04T13:12:51.381Z,5.10
2022-10-04T13:15:16.103Z,8.82
2022-10-04T13:17:41.169Z,6.40
2022-10-04T13:19:54.920Z,7.18
2022-10-04T13:22:11.516Z,6.63
2022-10-04T13:24:55.251Z,6.50
2022-10-04T13:27:05.458Z,6.28
2022-10-04T13:29:30.105Z,6.97
2022-10-04T13:31:35.003Z,8.77
2022-10-04T13:33:44.266Z,6.55
2022-10-04T13:36:00.758Z,7.32
2022-10-04T13:38:21.594Z,6.85
2022-10-04T13:40:23.425Z,6.80
2022-10-04T13:42:52.500Z,7.68
2022-10-04T13:45:24.795Z,6.63
2022-10-04T13:47:38.313Z,7.53
2022-10-04T13:49:58.935Z,6.90
2022-10-04T13:52:59.448Z,9.65
2022-10-04T13:55:44.516Z,6.22
2022-10-04T13:58:08.179Z,10.10
2022-10-04T14:00:15.094Z,7.18
2022-10-04T14:03:11.252Z,8.68
2022-10-04T14:05:41.433Z,8.15
2022-10-04T14:08:02.008Z,7.60
2022-10-04T14:10:18.677Z,8.18
2022-10-04T14:13:06.234Z,8.68
2022-10-04T14:15:11.253Z,8.23
2022-10-04T14:17:42.157Z,9.45
2022-10-04T14:20:22.166Z,8.02
2022-10-04T14:23:01.589Z,9.23
2022-10-04T14:25:35.845Z,7.80
2022-10-04T14:28:14.783Z,7.90
2022-10-04T14:30:19.868Z,8.50
2022-10-04T14:32:30.268Z,7.07
2022-10-04T14:34:56.918Z,7.32
2022-10-04T14:37:27.835Z,7.75
2022-10-04T14:39:41.236Z,7.05
2022-10-04T14:42:07.249Z,9.18
2022-10-04T14:44:30.055Z,7.60
2022-10-04T14:46:40.561Z,7.40
2022-10-04T14:48:48.761Z,6.88
2022-10-04T14:51:06.304Z,6.70
2022-10-04T14:53:28.131Z,8.10
2022-10-04T14:56:04.149Z,7.78
2022-10-04T14:58:24.403Z,7.22
2022-10-04T15:01:04.872Z,7.53
2022-10-04T15:03:28.898Z,15.30
2022-10-04T15:06:09.438Z,7.40
2022-10-04T15:08:29.922Z,4.43
2022-10-04T15:10:38.213Z,7.88
2022-10-04T15:13:11.576Z,6.20
2022-10-04T15:15:23.817Z,20.88
2022-10-04T15:17:37.838Z,14.20
2022-10-04T15:20:10.955Z,9.27
2022-10-04T15:22:28.166Z,20.13
2022-10-04T15:24:51.446Z,4.03
2022-10-04T15:27:26.945Z,3.67
2022-10-04T15:29:41.242Z,12.05
2022-10-04T15:31:46.202Z,5.70
2022-10-04T15:34:00.085Z,3.15
2022-10-04T15:36:01.952Z,16.52
2022-10-04T15:38:21.780Z,7.80
2022-10-04T15:40:40.900Z,8.15
2022-10-04T15:43:03.947Z,6.88
2022-10-04T15:45:16.962Z,7.25
2022-10-04T15:47:24.271Z,4.97
2022-10-04T15:49:36.940Z,8.10
2022-10-04T15:52:12.448Z,10.63
2022-10-04T15:54:33.201Z,5.95
2022-10-04T15:56:41.122Z,6.32
2022-10-04T15:58:56.138Z,5.18
2022-10-04T16:01:04.250Z,6.43
2022-10-04T16:03:30.611Z,5.13
2022-10-04T16:05:57.606Z,7.22
2022-10-04T16:08:19.734Z,4.72
2022-10-04T16:11:00.530Z,8.80
2022-10-04T16:13:17.247Z,6.38
2022-10-04T16:15:29.802Z,3.20
2022-10-04T16:18:06.042Z,3.95
2022-10-04T16:20:16.889Z,4.20
2022-10-04T16:22:28.080Z,4.15
2022-10-04T16:24:45.814Z,12.63
2022-10-04T16:26:48.022Z,11.23
2022-10-04T16:29:27.774Z,14.65
2022-10-04T16:31:42.864Z,6.88
2022-10-04T16:34:17.900Z,5.18
2022-10-04T16:36:24.779Z,12.23
2022-10-04T16:38:28.891Z,5.28
2022-10-04T16:40:33.777Z,10.85
2022-10-04T16:42:44.632Z,7.25
2022-10-04T16:44:56.011Z,6.53
2022-10-04T16:47:03.113Z,15.25
2022-10-04T16:49:28.574Z,7.20
2022-10-04T16:51:51.794Z,7.22
2022-10-04T16:54:04.837Z,6.15
2022-10-04T16:56:16.661Z,4.93
2022-10-04T16:58:27.427Z,6.07
2022-10-04T17:00:36.305Z,14.05
2022-10-04T17:02:41.077Z,15.52
2022-10-04T17:05:22.520Z,11.18
2022-10-04T17:07:33.959Z,8.65
2022-10-04T17:09:48.885Z,5.50
2022-10-04T17:12:17.402Z,10.60
2022-10-04T17:14:32.501Z,12.80
2022-10-04T17:16:48.416Z,8.52
2022-10-04T17:19:13.453Z,17.88
2022-10-04T17:21:46.202Z,6.93
2022-10-04T17:24:08.894Z,7.25
2022-10-04T17:26:30.205Z,9.05
2022-10-04T17:28:47.620Z,5.60
2022-10-04T17:31:14.379Z,9.50
2022-10-04T17:33:43.676Z,4.03
2022-10-04T17:36:07.845Z,5.35
2022-10-04T17:38:24.279Z,9.68
2022-10-04T17:40:37.791Z,7.38
2022-10-04T17:43:01.564Z,4.63
2022-10-04T17:45:27.474Z,9.23
2022-10-04T17:47:58.985Z,5.13
2022-10-04T17:50:35.286Z,6.65
2022-10-04T17:53:15.473Z,6.20
2022-10-04T17:55:44.025Z,6.72
2022-10-04T17:58:17.364Z,7.70
2022-10-04T18:00:23.847Z,7.40
2022-10-04T18:02:38.072Z,10.20
2022-10-04T18:04:50.667Z,8.80
2022-10-04T18:07:16.480Z,10.68
2022-10-04T18:09:29.599Z,14.05
2022-10-04T18:11:43.754Z,9.02
2022-10-04T18:14:03.192Z,9.82
2022-10-04T18:16:22.585Z,8.00
2022-10-04T18:18:30.391Z,9.07
2022-10-04T18:20:37.747Z,7.37
2022-10-04T18:22:51.538Z,8.07
2022-10-04T18:25:15.172Z,6.93
2022-10-04T18:27:26.870Z,11.40
2022-10-04T18:30:14.347Z,8.32
2022-10-04T18:32:28.606Z,8.68
2022-10-04T18:34:32.126Z,11.50
2022-10-04T18:37:09.342Z,7.68
2022-10-04T18:39:14.402Z,9.00
2022-10-04T18:41:18.327Z,7.93
2022-10-04T18:43:33.240Z,11.48
2022-10-04T18:45:35.255Z,8.95
2022-10-04T18:47:41.464Z,5.75
2022-10-04T18:49:53.500Z,6.78
2022-10-04T18:52:25.842Z,6.22
2022-10-04T18:54:55.598Z,10.95
2022-10-04T18:57:56.420Z,7.78
2022-10-04T19:00:30.305Z,6.57
2022-10-04T19:02:56.000Z,14.02
2022-10-04T19:05:15.491Z,7.85
2022-10-04T19:07:17.308Z,7.15
2022-10-04T19:09:28.048Z,7.47
2022-10-04T19:12:00.086Z,10.80
2022-10-04T19:14:18.792Z,5.88
2022-10-04T19:16:27.907Z,8.40
2022-10-04T19:18:58.062Z,7.90
2022-10-04T19:21:35.072Z,8.45
2022-10-04T19:23:50.043Z,6.55
2022-10-04T19:26:33.588Z,9.75
2022-10-04T19:28:37.824Z,8.38
2022-10-04T19:30:48.980Z,12.27
2022-10-04T19:33:02.028Z,7.60
2022-10-04T19:35:28.898Z,10.98
2022-10-04T19:38:02.501Z,9.70
2022-10-04T19:40:26.417Z,9.23
2022-10-04T19:42:46.640Z,8.07
2022-10-04T19:45:09.816Z,6.18
2022-10-04T19:47:21.090Z,7.68
2022-10-04T19:50:04.756Z,6.90
2022-10-04T19:52:48.945Z,8.05
2022-10-04T19:54:59.403Z,8.00
2022-10-04T19:57:05.498Z,7.85
2022-10-04T19:59:22.038Z,9.27
2022-10-04T20:01:25.978Z,6.07
2022-10-04T20:03:28.635Z,8.77
2022-10-04T20:05:30.484Z,7.18
2022-10-04T20:07:32.559Z,10.05
2022-10-04T20:09:37.335Z,11.02
2022-10-04T20:11:48.480Z,6.95
2022-10-04T20:14:07.154Z,7.57
2022-10-04T20:16:10.788Z,7.28
2022-10-04T20:18:33.543Z,6.50
2022-10-04T20:20:40.052Z,7.18
2022-10-04T20:22:52.149Z,9.40
2022-10-04T20:24:54.074Z,8.40
2022-10-04T20:26:56.938Z,6.53
2022-10-04T20:28:59.009Z,7.15
2022-10-04T20:31:03.023Z,5.85
2022-10-04T20:33:04.914Z,7.07
2022-10-04T20:35:14.196Z,4.78
2022-10-04T20:37:19.087Z,8.82
2022-10-04T20:39:43.737Z,8.38
2022-10-04T20:42:04.348Z,6.00
2022-10-04T20:44:07.507Z,6.68
2022-10-04T20:46:22.847Z,10.05
2022-10-04T20:48:26.618Z,6.97
2022-10-04T20:50:43.185Z,5.50
2022-10-04T20:52:55.725Z,6.18
2022-10-04T20:55:01.456Z,5.50
2022-10-04T20:57:03.454Z,4.78
2022-10-04T20:59:05.438Z,5.35
2022-10-04T21:01:38.356Z,4.78
2022-10-04T21:03:40.375Z,5.05
2022-10-04T21:05:42.555Z,5.28
2022-10-04T21:07:44.601Z,6.63
2022-10-04T21:09:47.013Z,4.70
2022-10-04T21:11:53.504Z,5.72
2022-10-04T21:13:57.248Z,8.20
2022-10-04T21:16:00.516Z,8.02
2022-10-04T21:18:08.454Z,8.82
2022-10-04T21:20:15.861Z,6.82
2022-10-04T21:22:17.616Z,5.72
2022-10-04T21:24:50.342Z,9.23
2022-10-04T21:26:56.985Z,7.60
2022-10-04T21:28:59.549Z,8.60
2022-10-04T21:31:02.881Z,7.32
2022-10-04T21:33:04.732Z,9.20
2022-10-04T21:35:08.023Z,8.10
2022-10-04T21:37:09.874Z,10.70
2022-10-04T21:39:11.736Z,5.65
2022-10-04T21:41:13.744Z,5.45
2022-10-04T21:43:15.578Z,10.52
2022-10-04T21:45:17.401Z,6.68
2022-10-04T21:47:22.736Z,5.85
2022-10-04T21:49:24.645Z,4.93
2022-10-04T21:51:26.605Z,8.32
2022-10-04T21:53:28.631Z,5.82
2022-10-04T21:55:30.594Z,6.22
2022-10-04T21:57:35.687Z,5.50
2022-10-04T21:59:37.792Z,5.85
2022-10-04T22:01:39.617Z,11.52
2022-10-04T22:03:41.472Z,6.28
2022-10-04T22:05:43.285Z,8.23
2022-10-04T22:07:45.165Z,9.18
2022-10-04T22:09:47.038Z,6.15
2022-10-04T22:11:48.892Z,7.97
2022-10-04T22:13:51.206Z,6.72
2022-10-04T22:15:53.431Z,7.05
2022-10-04T22:17:55.856Z,9.70
2022-10-04T22:19:57.810Z,7.15
2022-10-04T22:21:59.663Z,6.25
2022-10-04T22:24:03.752Z,4.82
2022-10-04T22:26:15.706Z,5.85
2022-10-04T22:28:23.285Z,5.25
2022-10-04T22:30:31.297Z,6.25
2022-10-04T22:32:33.256Z,8.80
2022-10-04T22:34:35.080Z,6.38
2022-10-04T22:36:39.444Z,6.45
2022-10-04T22:38:44.764Z,8.35
2022-10-04T22:40:46.653Z,6.55
2022-10-04T22:42:56.127Z,9.07
2022-10-04T22:45:01.241Z,7.10
2022-10-04T22:47:06.735Z,6.35
2022-10-04T22:49:17.803Z,8.73
2022-10-04T22:51:19.920Z,9.95
2022-10-04T22:53:23.330Z,4.82
2022-10-04T22:55:25.893Z,6.63
2022-10-04T22:57:30.042Z,7.32
2022-10-04T22:59:38.786Z,5.40
2022-10-04T23:01:42.118Z,4.95
2022-10-04T23:03:48.883Z,6.28
2022-10-04T23:05:51.007Z,7.07
2022-10-04T23:07:53.007Z,6.28
2022-10-04T23:09:54.960Z,5.28
2022-10-04T23:11:56.805Z,8.95
2022-10-04T23:13:58.897Z,8.32
2022-10-04T23:16:10.674Z,7.05
2022-10-04T23:18:15.915Z,7.53
2022-10-04T23:20:20.545Z,7.15
2022-10-04T23:22:29.602Z,6.63
2022-10-04T23:24:31.469Z,9.00
2022-10-04T23:26:38.555Z,6.20
2022-10-04T23:28:40.379Z,9.18
2022-10-04T23:30:43.178Z,6.45
2022-10-04T23:32:47.116Z,5.55
2022-10-04T23:34:55.659Z,5.72
2022-10-04T23:36:58.633Z,5.60
2022-10-04T23:39:01.631Z,6.65
2022-10-04T23:41:06.072Z,5.63
2022-10-04T23:43:21.947Z,7.65
2022-10-04T23:45:25.270Z,6.13
2022-10-04T23:47:36.020Z,6.95
2022-10-04T23:49:38.020Z,6.28
2022-10-04T23:51:40.003Z,6.97
2022-10-04T23:53:43.292Z,9.55
2022-10-04T23:55:46.069Z,5.40
2022-10-04T23:57:48.438Z,8.45
2022-10-04T23:59:50.966Z,7.70
